sensor_id;sensor_type;location;lat;lon;timestamp;P1;durP1;ratioP1;P2;durP2;ratioP2
6566;SDS011;3317;43.994;22.878;2022-08-02T00:00:53;2.83;;;2.10;;
6566;SDS011;3317;43.994;22.878;2022-08-02T00:03:20;1.87;;;1.70;;
6566;SDS011;3317;43.994;22.878;2022-08-02T00:05:49;3.80;;;1.83;;
6566;SDS011;3317;43.994;22.878;2022-08-02T00:08:16;2.10;;;1.90;;
6566;SDS011;3317;43.994;22.878;2022-08-02T00:10:43;4.60;;;2.17;;
6566;SDS011;3317;43.994;22.878;2022-08-02T00:13:10;6.23;;;2.50;;
6566;SDS011;3317;43.994;22.878;2022-08-02T00:15:36;2.67;;;2.00;;
6566;SDS011;3317;43.994;22.878;2022-08-02T00:18:04;3.73;;;2.20;;
6566;SDS011;3317;43.994;22.878;2022-08-02T00:20:31;2.77;;;2.20;;
6566;SDS011;3317;43.994;22.878;2022-08-02T00:22:59;2.50;;;2.10;;
6566;SDS011;3317;43.994;22.878;2022-08-02T00:25:26;4.83;;;2.20;;
6566;SDS011;3317;43.994;22.878;2022-08-02T00:27:53;3.20;;;2.10;;
6566;SDS011;3317;43.994;22.878;2022-08-02T00:30:20;4.83;;;2.17;;
6566;SDS011;3317;43.994;22.878;2022-08-02T00:32:47;3.37;;;2.10;;
6566;SDS011;3317;43.994;22.878;2022-08-02T00:35:14;4.57;;;2.10;;
6566;SDS011;3317;43.994;22.878;2022-08-02T00:37:41;3.87;;;2.47;;
6566;SDS011;3317;43.994;22.878;2022-08-02T00:40:10;2.10;;;1.90;;
6566;SDS011;3317;43.994;22.878;2022-08-02T00:42:37;3.37;;;2.40;;
6566;SDS011;3317;43.994;22.878;2022-08-02T00:45:05;4.23;;;2.20;;
6566;SDS011;3317;43.994;22.878;2022-08-02T00:47:33;3.00;;;2.40;;
6566;SDS011;3317;43.994;22.878;2022-08-02T00:50:00;3.20;;;1.93;;
6566;SDS011;3317;43.994;22.878;2022-08-02T00:52:27;3.40;;;2.20;;
6566;SDS011;3317;43.994;22.878;2022-08-02T00:54:54;3.43;;;2.40;;
6566;SDS011;3317;43.994;22.878;2022-08-02T00:57:22;3.43;;;2.20;;
6566;SDS011;3317;43.994;22.878;2022-08-02T00:59:49;2.67;;;2.17;;
6566;SDS011;3317;43.994;22.878;2022-08-02T01:02:16;3.80;;;2.27;;
6566;SDS011;3317;43.994;22.878;2022-08-02T01:04:43;3.60;;;2.00;;
6566;SDS011;3317;43.994;22.878;2022-08-02T01:07:10;2.67;;;2.20;;
6566;SDS011;3317;43.994;22.878;2022-08-02T01:09:38;2.53;;;2.07;;
6566;SDS011;3317;43.994;22.878;2022-08-02T01:12:06;3.03;;;2.23;;
6566;SDS011;3317;43.994;22.878;2022-08-02T01:14:34;4.40;;;2.40;;
6566;SDS011;3317;43.994;22.878;2022-08-02T01:17:03;3.43;;;1.87;;
6566;SDS011;3317;43.994;22.878;2022-08-02T01:19:37;3.87;;;2.40;;
6566;SDS011;3317;43.994;22.878;2022-08-02T01:22:18;3.80;;;2.40;;
6566;SDS011;3317;43.994;22.878;2022-08-02T01:25:07;2.67;;;2.20;;
6566;SDS011;3317;43.994;22.878;2022-08-02T01:27:50;6.63;;;2.30;;
6566;SDS011;3317;43.994;22.878;2022-08-02T01:30:30;4.47;;;2.80;;
6566;SDS011;3317;43.994;22.878;2022-08-02T01:33:00;2.80;;;2.53;;
6566;SDS011;3317;43.994;22.878;2022-08-02T01:35:32;5.17;;;2.60;;
6566;SDS011;3317;43.994;22.878;2022-08-02T01:38:06;2.90;;;2.30;;
6566;SDS011;3317;43.994;22.878;2022-08-02T01:40:37;6.00;;;2.60;;
6566;SDS011;3317;43.994;22.878;2022-08-02T01:43:08;2.80;;;2.40;;
6566;SDS011;3317;43.994;22.878;2022-08-02T01:45:38;4.33;;;2.40;;
6566;SDS011;3317;43.994;22.878;2022-08-02T01:48:07;5.70;;;2.33;;
6566;SDS011;3317;43.994;22.878;2022-08-02T01:50:36;4.57;;;2.73;;
6566;SDS011;3317;43.994;22.878;2022-08-02T01:53:05;3.17;;;2.63;;
6566;SDS011;3317;43.994;22.878;2022-08-02T01:55:37;6.03;;;2.53;;
6566;SDS011;3317;43.994;22.878;2022-08-02T01:58:09;2.50;;;2.23;;
6566;SDS011;3317;43.994;22.878;2022-08-02T02:00:39;3.50;;;2.30;;
6566;SDS011;3317;43.994;22.878;2022-08-02T02:03:08;2.97;;;2.53;;
6566;SDS011;3317;43.994;22.878;2022-08-02T02:05:38;3.30;;;2.47;;
6566;SDS011;3317;43.994;22.878;2022-08-02T02:08:08;2.60;;;2.30;;
6566;SDS011;3317;43.994;22.878;2022-08-02T02:10:36;3.20;;;2.00;;
6566;SDS011;3317;43.994;22.878;2022-08-02T02:13:06;2.60;;;2.27;;
6566;SDS011;3317;43.994;22.878;2022-08-02T02:15:37;3.80;;;2.37;;
6566;SDS011;3317;43.994;22.878;2022-08-02T02:18:07;2.93;;;2.63;;
6566;SDS011;3317;43.994;22.878;2022-08-02T02:20:36;2.80;;;2.20;;
6566;SDS011;3317;43.994;22.878;2022-08-02T02:23:03;4.57;;;2.73;;
6566;SDS011;3317;43.994;22.878;2022-08-02T02:25:30;4.43;;;2.67;;
6566;SDS011;3317;43.994;22.878;2022-08-02T02:27:59;3.90;;;2.50;;
6566;SDS011;3317;43.994;22.878;2022-08-02T02:30:30;4.27;;;2.80;;
6566;SDS011;3317;43.994;22.878;2022-08-02T02:33:01;4.30;;;2.43;;
6566;SDS011;3317;43.994;22.878;2022-08-02T02:35:33;3.00;;;2.20;;
6566;SDS011;3317;43.994;22.878;2022-08-02T02:38:08;3.07;;;2.30;;
6566;SDS011;3317;43.994;22.878;2022-08-02T02:40:39;6.23;;;2.63;;
6566;SDS011;3317;43.994;22.878;2022-08-02T02:43:07;3.47;;;2.57;;
6566;SDS011;3317;43.994;22.878;2022-08-02T02:45:36;3.03;;;2.40;;
6566;SDS011;3317;43.994;22.878;2022-08-02T02:48:07;2.87;;;2.27;;
6566;SDS011;3317;43.994;22.878;2022-08-02T02:50:35;3.27;;;2.50;;
6566;SDS011;3317;43.994;22.878;2022-08-02T02:53:03;3.30;;;2.27;;
6566;SDS011;3317;43.994;22.878;2022-08-02T02:55:34;4.40;;;2.50;;
6566;SDS011;3317;43.994;22.878;2022-08-02T02:58:03;4.23;;;2.30;;
6566;SDS011;3317;43.994;22.878;2022-08-02T03:00:30;4.93;;;2.40;;
6566;SDS011;3317;43.994;22.878;2022-08-02T03:03:15;2.87;;;2.30;;
6566;SDS011;3317;43.994;22.878;2022-08-02T03:05:43;3.07;;;2.40;;
6566;SDS011;3317;43.994;22.878;2022-08-02T03:08:11;3.20;;;2.70;;
6566;SDS011;3317;43.994;22.878;2022-08-02T03:10:38;2.40;;;2.20;;
6566;SDS011;3317;43.994;22.878;2022-08-02T03:13:05;3.83;;;2.70;;
6566;SDS011;3317;43.994;22.878;2022-08-02T03:15:32;3.73;;;3.07;;
6566;SDS011;3317;43.994;22.878;2022-08-02T03:18:00;3.33;;;2.60;;
6566;SDS011;3317;43.994;22.878;2022-08-02T03:20:28;2.83;;;2.40;;
6566;SDS011;3317;43.994;22.878;2022-08-02T03:22:55;4.43;;;2.37;;
6566;SDS011;3317;43.994;22.878;2022-08-02T03:25:22;2.90;;;2.60;;
6566;SDS011;3317;43.994;22.878;2022-08-02T03:27:49;3.20;;;2.90;;
6566;SDS011;3317;43.994;22.878;2022-08-02T03:30:16;5.77;;;2.97;;
6566;SDS011;3317;43.994;22.878;2022-08-02T03:32:44;4.27;;;2.83;;
6566;SDS011;3317;43.994;22.878;2022-08-02T03:35:14;2.87;;;2.30;;
6566;SDS011;3317;43.994;22.878;2022-08-02T03:37:45;5.67;;;2.70;;
6566;SDS011;3317;43.994;22.878;2022-08-02T03:40:13;7.37;;;3.13;;
6566;SDS011;3317;43.994;22.878;2022-08-02T03:42:40;3.13;;;2.57;;
6566;SDS011;3317;43.994;22.878;2022-08-02T03:45:08;3.87;;;2.87;;
6566;SDS011;3317;43.994;22.878;2022-08-02T03:47:38;4.47;;;2.83;;
6566;SDS011;3317;43.994;22.878;2022-08-02T03:50:07;4.10;;;2.70;;
6566;SDS011;3317;43.994;22.878;2022-08-02T03:52:36;4.37;;;2.83;;
6566;SDS011;3317;43.994;22.878;2022-08-02T03:55:08;4.10;;;3.03;;
6566;SDS011;3317;43.994;22.878;2022-08-02T03:57:36;5.23;;;3.23;;
6566;SDS011;3317;43.994;22.878;2022-08-02T04:00:04;3.60;;;3.20;;
6566;SDS011;3317;43.994;22.878;2022-08-02T04:02:32;3.80;;;2.80;;
6566;SDS011;3317;43.994;22.878;2022-08-02T04:04:59;5.23;;;3.07;;
6566;SDS011;3317;43.994;22.878;2022-08-02T04:07:26;6.63;;;4.00;;
6566;SDS011;3317;43.994;22.878;2022-08-02T04:09:53;5.10;;;3.60;;
6566;SDS011;3317;43.994;22.878;2022-08-02T04:12:21;4.30;;;3.20;;
6566;SDS011;3317;43.994;22.878;2022-08-02T04:14:48;4.20;;;3.50;;
6566;SDS011;3317;43.994;22.878;2022-08-02T04:17:15;6.17;;;3.10;;
6566;SDS011;3317;43.994;22.878;2022-08-02T04:19:47;7.13;;;3.70;;
6566;SDS011;3317;43.994;22.878;2022-08-02T04:25:05;5.00;;;3.50;;
6566;SDS011;3317;43.994;22.878;2022-08-02T04:27:36;6.40;;;3.20;;
6566;SDS011;3317;43.994;22.878;2022-08-02T04:30:06;7.97;;;4.67;;
6566;SDS011;3317;43.994;22.878;2022-08-02T04:32:34;5.43;;;3.80;;
6566;SDS011;3317;43.994;22.878;2022-08-02T04:35:02;5.50;;;3.33;;
6566;SDS011;3317;43.994;22.878;2022-08-02T04:37:29;4.20;;;3.80;;
6566;SDS011;3317;43.994;22.878;2022-08-02T04:39:56;7.30;;;3.50;;
6566;SDS011;3317;43.994;22.878;2022-08-02T04:42:24;5.40;;;2.87;;
6566;SDS011;3317;43.994;22.878;2022-08-02T04:44:53;6.80;;;4.07;;
6566;SDS011;3317;43.994;22.878;2022-08-02T04:47:20;3.80;;;3.30;;
6566;SDS011;3317;43.994;22.878;2022-08-02T04:49:47;5.57;;;3.93;;
6566;SDS011;3317;43.994;22.878;2022-08-02T04:52:14;4.93;;;3.20;;
6566;SDS011;3317;43.994;22.878;2022-08-02T04:54:41;8.20;;;3.40;;
6566;SDS011;3317;43.994;22.878;2022-08-02T04:57:08;6.50;;;3.20;;
6566;SDS011;3317;43.994;22.878;2022-08-02T04:59:49;4.93;;;3.70;;
6566;SDS011;3317;43.994;22.878;2022-08-02T05:02:17;3.60;;;2.90;;
6566;SDS011;3317;43.994;22.878;2022-08-02T05:04:44;4.50;;;2.67;;
6566;SDS011;3317;43.994;22.878;2022-08-02T05:07:11;7.27;;;2.97;;
6566;SDS011;3317;43.994;22.878;2022-08-02T05:09:38;5.93;;;3.33;;
6566;SDS011;3317;43.994;22.878;2022-08-02T05:12:05;3.60;;;2.17;;
6566;SDS011;3317;43.994;22.878;2022-08-02T05:14:33;3.10;;;2.30;;
6566;SDS011;3317;43.994;22.878;2022-08-02T05:17:00;5.87;;;3.23;;
6566;SDS011;3317;43.994;22.878;2022-08-02T05:19:31;5.03;;;2.50;;
6566;SDS011;3317;43.994;22.878;2022-08-02T05:21:58;3.67;;;2.80;;
6566;SDS011;3317;43.994;22.878;2022-08-02T05:24:25;6.30;;;2.67;;
6566;SDS011;3317;43.994;22.878;2022-08-02T05:26:51;5.10;;;2.20;;
6566;SDS011;3317;43.994;22.878;2022-08-02T05:29:18;5.47;;;2.50;;
6566;SDS011;3317;43.994;22.878;2022-08-02T05:31:46;4.53;;;2.70;;
6566;SDS011;3317;43.994;22.878;2022-08-02T05:34:14;4.43;;;2.40;;
6566;SDS011;3317;43.994;22.878;2022-08-02T05:36:42;3.13;;;2.23;;
6566;SDS011;3317;43.994;22.878;2022-08-02T05:39:09;3.40;;;2.07;;
6566;SDS011;3317;43.994;22.878;2022-08-02T05:41:36;3.73;;;2.17;;
6566;SDS011;3317;43.994;22.878;2022-08-02T05:44:03;4.67;;;1.93;;
6566;SDS011;3317;43.994;22.878;2022-08-02T05:46:30;2.60;;;1.90;;
6566;SDS011;3317;43.994;22.878;2022-08-02T05:48:57;5.10;;;2.17;;
6566;SDS011;3317;43.994;22.878;2022-08-02T05:51:27;2.03;;;1.80;;
6566;SDS011;3317;43.994;22.878;2022-08-02T05:54:03;2.40;;;1.93;;
6566;SDS011;3317;43.994;22.878;2022-08-02T05:56:37;4.07;;;2.20;;
6566;SDS011;3317;43.994;22.878;2022-08-02T05:59:13;2.73;;;2.43;;
6566;SDS011;3317;43.994;22.878;2022-08-02T06:01:48;4.97;;;2.00;;
6566;SDS011;3317;43.994;22.878;2022-08-02T06:04:23;2.67;;;2.10;;
6566;SDS011;3317;43.994;22.878;2022-08-02T06:06:52;2.30;;;1.90;;
6566;SDS011;3317;43.994;22.878;2022-08-02T06:09:24;4.13;;;2.10;;
6566;SDS011;3317;43.994;22.878;2022-08-02T06:11:52;7.30;;;2.03;;
6566;SDS011;3317;43.994;22.878;2022-08-02T06:14:19;11.00;;;2.20;;
6566;SDS011;3317;43.994;22.878;2022-08-02T06:16:46;7.03;;;2.23;;
6566;SDS011;3317;43.994;22.878;2022-08-02T06:19:16;1.67;;;1.37;;
6566;SDS011;3317;43.994;22.878;2022-08-02T06:21:44;1.83;;;1.60;;
6566;SDS011;3317;43.994;22.878;2022-08-02T06:24:15;3.50;;;1.60;;
6566;SDS011;3317;43.994;22.878;2022-08-02T06:26:45;3.23;;;1.87;;
6566;SDS011;3317;43.994;22.878;2022-08-02T06:29:16;3.80;;;2.00;;
6566;SDS011;3317;43.994;22.878;2022-08-02T06:31:45;5.90;;;1.70;;
6566;SDS011;3317;43.994;22.878;2022-08-02T06:34:13;5.43;;;1.60;;
6566;SDS011;3317;43.994;22.878;2022-08-02T06:36:41;2.43;;;1.60;;
6566;SDS011;3317;43.994;22.878;2022-08-02T06:39:16;3.77;;;1.70;;
6566;SDS011;3317;43.994;22.878;2022-08-02T06:41:49;3.20;;;2.20;;
6566;SDS011;3317;43.994;22.878;2022-08-02T06:44:20;1.97;;;1.67;;
6566;SDS011;3317;43.994;22.878;2022-08-02T06:46:47;2.13;;;1.93;;
6566;SDS011;3317;43.994;22.878;2022-08-02T06:49:14;2.63;;;1.97;;
6566;SDS011;3317;43.994;22.878;2022-08-02T06:51:41;3.67;;;1.97;;
6566;SDS011;3317;43.994;22.878;2022-08-02T06:54:08;3.80;;;2.10;;
6566;SDS011;3317;43.994;22.878;2022-08-02T06:56:35;2.10;;;1.77;;
6566;SDS011;3317;43.994;22.878;2022-08-02T06:59:06;2.67;;;1.80;;
6566;SDS011;3317;43.994;22.878;2022-08-02T07:01:33;2.67;;;1.97;;
6566;SDS011;3317;43.994;22.878;2022-08-02T07:04:00;1.60;;;1.50;;
6566;SDS011;3317;43.994;22.878;2022-08-02T07:06:27;2.13;;;1.80;;
6566;SDS011;3317;43.994;22.878;2022-08-02T07:08:54;2.40;;;2.00;;
6566;SDS011;3317;43.994;22.878;2022-08-02T07:11:21;1.70;;;1.30;;
6566;SDS011;3317;43.994;22.878;2022-08-02T07:13:48;2.80;;;1.77;;
6566;SDS011;3317;43.994;22.878;2022-08-02T07:16:16;2.63;;;1.77;;
6566;SDS011;3317;43.994;22.878;2022-08-02T07:18:44;1.70;;;1.60;;
6566;SDS011;3317;43.994;22.878;2022-08-02T07:21:11;6.90;;;2.03;;
6566;SDS011;3317;43.994;22.878;2022-08-02T07:23:37;2.97;;;1.90;;
6566;SDS011;3317;43.994;22.878;2022-08-02T07:26:04;2.10;;;1.90;;
6566;SDS011;3317;43.994;22.878;2022-08-02T07:28:31;2.10;;;1.80;;
6566;SDS011;3317;43.994;22.878;2022-08-02T07:30:58;2.07;;;1.80;;
6566;SDS011;3317;43.994;22.878;2022-08-02T07:33:27;2.07;;;1.77;;
6566;SDS011;3317;43.994;22.878;2022-08-02T07:35:54;3.10;;;1.50;;
6566;SDS011;3317;43.994;22.878;2022-08-02T07:38:22;1.87;;;1.77;;
6566;SDS011;3317;43.994;22.878;2022-08-02T07:40:49;4.03;;;1.90;;
6566;SDS011;3317;43.994;22.878;2022-08-02T07:43:16;2.30;;;1.70;;
6566;SDS011;3317;43.994;22.878;2022-08-02T07:45:43;3.07;;;2.13;;
6566;SDS011;3317;43.994;22.878;2022-08-02T07:48:10;3.20;;;2.60;;
6566;SDS011;3317;43.994;22.878;2022-08-02T07:50:38;4.83;;;4.10;;
6566;SDS011;3317;43.994;22.878;2022-08-02T07:53:05;2.43;;;2.00;;
6566;SDS011;3317;43.994;22.878;2022-08-02T07:55:32;2.73;;;1.50;;
6566;SDS011;3317;43.994;22.878;2022-08-02T07:58:02;1.67;;;1.50;;
6566;SDS011;3317;43.994;22.878;2022-08-02T08:00:30;2.87;;;1.90;;
6566;SDS011;3317;43.994;22.878;2022-08-02T08:02:57;2.50;;;1.70;;
6566;SDS011;3317;43.994;22.878;2022-08-02T08:05:24;3.30;;;1.63;;
6566;SDS011;3317;43.994;22.878;2022-08-02T08:07:52;1.87;;;1.40;;
6566;SDS011;3317;43.994;22.878;2022-08-02T08:10:19;1.87;;;1.70;;
6566;SDS011;3317;43.994;22.878;2022-08-02T08:12:46;3.00;;;1.70;;
6566;SDS011;3317;43.994;22.878;2022-08-02T08:15:13;2.67;;;1.60;;
6566;SDS011;3317;43.994;22.878;2022-08-02T08:17:41;3.50;;;1.90;;
6566;SDS011;3317;43.994;22.878;2022-08-02T08:20:10;2.33;;;1.90;;
6566;SDS011;3317;43.994;22.878;2022-08-02T08:22:37;3.60;;;2.00;;
6566;SDS011;3317;43.994;22.878;2022-08-02T08:25:06;1.80;;;1.70;;
6566;SDS011;3317;43.994;22.878;2022-08-02T08:27:34;2.17;;;1.83;;
6566;SDS011;3317;43.994;22.878;2022-08-02T08:30:00;2.10;;;1.90;;
6566;SDS011;3317;43.994;22.878;2022-08-02T08:32:28;2.03;;;1.70;;
6566;SDS011;3317;43.994;22.878;2022-08-02T08:34:55;2.53;;;1.70;;
6566;SDS011;3317;43.994;22.878;2022-08-02T08:37:22;1.93;;;1.60;;
6566;SDS011;3317;43.994;22.878;2022-08-02T08:39:49;1.87;;;1.30;;
6566;SDS011;3317;43.994;22.878;2022-08-02T08:42:18;1.90;;;1.67;;
6566;SDS011;3317;43.994;22.878;2022-08-02T08:44:45;2.20;;;1.87;;
6566;SDS011;3317;43.994;22.878;2022-08-02T08:47:11;1.50;;;1.30;;
6566;SDS011;3317;43.994;22.878;2022-08-02T08:49:39;4.93;;;1.93;;
6566;SDS011;3317;43.994;22.878;2022-08-02T08:52:10;1.47;;;1.37;;
6566;SDS011;3317;43.994;22.878;2022-08-02T08:54:38;2.20;;;1.40;;
6566;SDS011;3317;43.994;22.878;2022-08-02T08:57:09;2.20;;;1.60;;
6566;SDS011;3317;43.994;22.878;2022-08-02T08:59:38;2.30;;;2.07;;
6566;SDS011;3317;43.994;22.878;2022-08-02T09:02:05;5.43;;;1.80;;
6566;SDS011;3317;43.994;22.878;2022-08-02T09:04:36;4.20;;;1.53;;
6566;SDS011;3317;43.994;22.878;2022-08-02T09:07:03;5.23;;;1.37;;
6566;SDS011;3317;43.994;22.878;2022-08-02T09:09:30;3.00;;;1.50;;
6566;SDS011;3317;43.994;22.878;2022-08-02T09:12:11;1.23;;;1.13;;
6566;SDS011;3317;43.994;22.878;2022-08-02T09:14:40;1.47;;;1.37;;
6566;SDS011;3317;43.994;22.878;2022-08-02T09:17:08;4.80;;;1.67;;
6566;SDS011;3317;43.994;22.878;2022-08-02T09:19:37;1.00;;;1.00;;
6566;SDS011;3317;43.994;22.878;2022-08-02T09:22:04;2.27;;;2.07;;
6566;SDS011;3317;43.994;22.878;2022-08-02T09:24:42;1.50;;;1.40;;
6566;SDS011;3317;43.994;22.878;2022-08-02T09:27:12;3.20;;;2.00;;
6566;SDS011;3317;43.994;22.878;2022-08-02T09:29:41;1.20;;;1.10;;
6566;SDS011;3317;43.994;22.878;2022-08-02T09:32:11;1.83;;;1.07;;
6566;SDS011;3317;43.994;22.878;2022-08-02T09:34:47;2.00;;;1.17;;
6566;SDS011;3317;43.994;22.878;2022-08-02T09:37:21;1.10;;;1.00;;
6566;SDS011;3317;43.994;22.878;2022-08-02T09:39:52;1.07;;;1.00;;
6566;SDS011;3317;43.994;22.878;2022-08-02T09:42:20;1.13;;;1.03;;
6566;SDS011;3317;43.994;22.878;2022-08-02T09:44:55;2.17;;;1.20;;
6566;SDS011;3317;43.994;22.878;2022-08-02T09:47:24;1.30;;;1.20;;
6566;SDS011;3317;43.994;22.878;2022-08-02T09:49:52;1.33;;;1.10;;
6566;SDS011;3317;43.994;22.878;2022-08-02T09:52:25;1.73;;;1.50;;
6566;SDS011;3317;43.994;22.878;2022-08-02T09:54:53;1.40;;;1.30;;
6566;SDS011;3317;43.994;22.878;2022-08-02T09:57:24;1.10;;;1.00;;
6566;SDS011;3317;43.994;22.878;2022-08-02T09:59:55;1.87;;;1.40;;
6566;SDS011;3317;43.994;22.878;2022-08-02T10:02:23;1.23;;;1.13;;
6566;SDS011;3317;43.994;22.878;2022-08-02T10:04:51;1.40;;;1.10;;
6566;SDS011;3317;43.994;22.878;2022-08-02T10:07:18;1.30;;;1.10;;
6566;SDS011;3317;43.994;22.878;2022-08-02T10:09:46;2.90;;;1.83;;
6566;SDS011;3317;43.994;22.878;2022-08-02T10:12:13;2.90;;;1.73;;
6566;SDS011;3317;43.994;22.878;2022-08-02T10:14:40;1.03;;;1.03;;
6566;SDS011;3317;43.994;22.878;2022-08-02T10:17:10;1.73;;;1.30;;
6566;SDS011;3317;43.994;22.878;2022-08-02T10:19:37;1.97;;;1.80;;
6566;SDS011;3317;43.994;22.878;2022-08-02T10:22:08;1.63;;;1.53;;
6566;SDS011;3317;43.994;22.878;2022-08-02T10:24:36;1.30;;;1.10;;
6566;SDS011;3317;43.994;22.878;2022-08-02T10:27:05;1.53;;;1.10;;
6566;SDS011;3317;43.994;22.878;2022-08-02T10:29:38;5.80;;;1.40;;
6566;SDS011;3317;43.994;22.878;2022-08-02T10:32:08;1.13;;;1.07;;
6566;SDS011;3317;43.994;22.878;2022-08-02T10:34:41;1.10;;;1.00;;
6566;SDS011;3317;43.994;22.878;2022-08-02T10:37:12;1.00;;;0.90;;
6566;SDS011;3317;43.994;22.878;2022-08-02T10:39:42;1.40;;;1.27;;
6566;SDS011;3317;43.994;22.878;2022-08-02T10:42:10;1.13;;;1.03;;
6566;SDS011;3317;43.994;22.878;2022-08-02T10:44:38;5.67;;;2.30;;
6566;SDS011;3317;43.994;22.878;2022-08-02T10:47:19;1.30;;;1.20;;
6566;SDS011;3317;43.994;22.878;2022-08-02T10:49:48;1.13;;;1.03;;
6566;SDS011;3317;43.994;22.878;2022-08-02T10:52:16;0.90;;;0.90;;
6566;SDS011;3317;43.994;22.878;2022-08-02T10:54:46;1.37;;;1.10;;
6566;SDS011;3317;43.994;22.878;2022-08-02T10:57:16;1.97;;;1.10;;
6566;SDS011;3317;43.994;22.878;2022-08-02T10:59:44;1.10;;;1.00;;
6566;SDS011;3317;43.994;22.878;2022-08-02T11:02:12;1.83;;;1.10;;
6566;SDS011;3317;43.994;22.878;2022-08-02T11:05:03;1.30;;;1.20;;
6566;SDS011;3317;43.994;22.878;2022-08-02T11:07:39;1.23;;;1.07;;
6566;SDS011;3317;43.994;22.878;2022-08-02T11:13:09;1.47;;;1.00;;
6566;SDS011;3317;43.994;22.878;2022-08-02T11:15:46;0.97;;;0.97;;
6566;SDS011;3317;43.994;22.878;2022-08-02T11:18:14;1.00;;;0.93;;
6566;SDS011;3317;43.994;22.878;2022-08-02T11:20:43;1.83;;;1.00;;
6566;SDS011;3317;43.994;22.878;2022-08-02T11:29:08;1.07;;;0.97;;
6566;SDS011;3317;43.994;22.878;2022-08-02T11:31:39;2.80;;;1.20;;
6566;SDS011;3317;43.994;22.878;2022-08-02T11:34:08;1.20;;;0.90;;
6566;SDS011;3317;43.994;22.878;2022-08-02T11:36:44;1.30;;;1.00;;
6566;SDS011;3317;43.994;22.878;2022-08-02T11:39:12;1.10;;;1.00;;
6566;SDS011;3317;43.994;22.878;2022-08-02T11:41:40;0.93;;;0.90;;
6566;SDS011;3317;43.994;22.878;2022-08-02T11:44:09;1.20;;;0.90;;
6566;SDS011;3317;43.994;22.878;2022-08-02T11:46:36;1.73;;;0.90;;
6566;SDS011;3317;43.994;22.878;2022-08-02T11:49:12;2.37;;;1.00;;
6566;SDS011;3317;43.994;22.878;2022-08-02T11:51:52;1.20;;;1.10;;
6566;SDS011;3317;43.994;22.878;2022-08-02T11:54:22;2.10;;;1.00;;
6566;SDS011;3317;43.994;22.878;2022-08-02T11:56:50;2.30;;;1.10;;
6566;SDS011;3317;43.994;22.878;2022-08-02T11:59:17;0.90;;;0.90;;
6566;SDS011;3317;43.994;22.878;2022-08-02T12:01:44;1.10;;;1.00;;
6566;SDS011;3317;43.994;22.878;2022-08-02T12:04:14;1.13;;;1.00;;
6566;SDS011;3317;43.994;22.878;2022-08-02T12:06:42;0.97;;;0.97;;
6566;SDS011;3317;43.994;22.878;2022-08-02T12:09:11;1.07;;;1.00;;
6566;SDS011;3317;43.994;22.878;2022-08-02T12:11:39;0.90;;;0.90;;
6566;SDS011;3317;43.994;22.878;2022-08-02T12:14:07;1.03;;;0.90;;
6566;SDS011;3317;43.994;22.878;2022-08-02T12:16:35;1.10;;;1.00;;
6566;SDS011;3317;43.994;22.878;2022-08-02T12:19:21;0.90;;;0.90;;
6566;SDS011;3317;43.994;22.878;2022-08-02T12:22:05;1.27;;;1.17;;
6566;SDS011;3317;43.994;22.878;2022-08-02T12:24:35;0.73;;;0.73;;
6566;SDS011;3317;43.994;22.878;2022-08-02T12:27:02;1.43;;;1.10;;
6566;SDS011;3317;43.994;22.878;2022-08-02T12:29:29;1.10;;;1.00;;
6566;SDS011;3317;43.994;22.878;2022-08-02T12:31:57;0.90;;;0.90;;
6566;SDS011;3317;43.994;22.878;2022-08-02T12:34:24;3.90;;;1.23;;
6566;SDS011;3317;43.994;22.878;2022-08-02T12:36:56;1.00;;;0.90;;
6566;SDS011;3317;43.994;22.878;2022-08-02T12:39:32;1.20;;;1.10;;
6566;SDS011;3317;43.994;22.878;2022-08-02T12:42:02;1.17;;;1.07;;
6566;SDS011;3317;43.994;22.878;2022-08-02T12:44:30;0.83;;;0.83;;
6566;SDS011;3317;43.994;22.878;2022-08-02T12:46:57;1.20;;;1.10;;
6566;SDS011;3317;43.994;22.878;2022-08-02T12:49:26;1.00;;;0.90;;
6566;SDS011;3317;43.994;22.878;2022-08-02T12:51:53;2.03;;;0.97;;
6566;SDS011;3317;43.994;22.878;2022-08-02T12:54:21;1.90;;;1.00;;
6566;SDS011;3317;43.994;22.878;2022-08-02T12:56:50;0.83;;;0.83;;
6566;SDS011;3317;43.994;22.878;2022-08-02T12:59:32;1.00;;;0.90;;
6566;SDS011;3317;43.994;22.878;2022-08-02T13:02:01;1.23;;;1.10;;
6566;SDS011;3317;43.994;22.878;2022-08-02T13:04:29;1.10;;;0.90;;
6566;SDS011;3317;43.994;22.878;2022-08-02T13:06:56;1.40;;;0.90;;
6566;SDS011;3317;43.994;22.878;2022-08-02T13:09:23;2.00;;;1.13;;
6566;SDS011;3317;43.994;22.878;2022-08-02T13:11:52;2.30;;;1.10;;
6566;SDS011;3317;43.994;22.878;2022-08-02T13:14:19;3.70;;;1.00;;
6566;SDS011;3317;43.994;22.878;2022-08-02T13:16:46;1.30;;;1.20;;
6566;SDS011;3317;43.994;22.878;2022-08-02T13:19:13;1.73;;;1.00;;
6566;SDS011;3317;43.994;22.878;2022-08-02T13:21:41;1.27;;;1.17;;
6566;SDS011;3317;43.994;22.878;2022-08-02T13:24:10;0.83;;;0.83;;
6566;SDS011;3317;43.994;22.878;2022-08-02T13:26:40;3.57;;;1.00;;
6566;SDS011;3317;43.994;22.878;2022-08-02T13:29:09;0.97;;;0.87;;
6566;SDS011;3317;43.994;22.878;2022-08-02T13:31:36;1.10;;;1.00;;
6566;SDS011;3317;43.994;22.878;2022-08-02T13:34:04;2.63;;;1.10;;
6566;SDS011;3317;43.994;22.878;2022-08-02T13:36:31;1.10;;;1.00;;
6566;SDS011;3317;43.994;22.878;2022-08-02T13:38:59;1.50;;;1.20;;
6566;SDS011;3317;43.994;22.878;2022-08-02T13:41:28;2.47;;;1.00;;
6566;SDS011;3317;43.994;22.878;2022-08-02T13:43:55;2.03;;;1.07;;
6566;SDS011;3317;43.994;22.878;2022-08-02T13:46:24;1.10;;;1.00;;
6566;SDS011;3317;43.994;22.878;2022-08-02T13:48:51;1.97;;;1.30;;
6566;SDS011;3317;43.994;22.878;2022-08-02T13:51:18;1.63;;;1.20;;
6566;SDS011;3317;43.994;22.878;2022-08-02T13:53:45;1.43;;;1.10;;
6566;SDS011;3317;43.994;22.878;2022-08-02T13:56:12;1.30;;;1.20;;
6566;SDS011;3317;43.994;22.878;2022-08-02T13:58:39;1.60;;;1.10;;
6566;SDS011;3317;43.994;22.878;2022-08-02T14:01:06;1.60;;;1.00;;
6566;SDS011;3317;43.994;22.878;2022-08-02T14:03:34;1.07;;;0.97;;
6566;SDS011;3317;43.994;22.878;2022-08-02T14:06:01;1.27;;;0.90;;
6566;SDS011;3317;43.994;22.878;2022-08-02T14:08:30;1.60;;;1.10;;
6566;SDS011;3317;43.994;22.878;2022-08-02T14:10:58;1.30;;;1.10;;
6566;SDS011;3317;43.994;22.878;2022-08-02T14:13:25;1.03;;;0.93;;
6566;SDS011;3317;43.994;22.878;2022-08-02T14:15:52;1.27;;;1.17;;
6566;SDS011;3317;43.994;22.878;2022-08-02T14:18:19;2.17;;;1.17;;
6566;SDS011;3317;43.994;22.878;2022-08-02T14:20:47;2.37;;;1.13;;
6566;SDS011;3317;43.994;22.878;2022-08-02T14:23:14;1.97;;;1.10;;
6566;SDS011;3317;43.994;22.878;2022-08-02T14:25:42;1.40;;;1.20;;
6566;SDS011;3317;43.994;22.878;2022-08-02T14:28:09;1.70;;;1.40;;
6566;SDS011;3317;43.994;22.878;2022-08-02T14:30:35;1.77;;;1.30;;
6566;SDS011;3317;43.994;22.878;2022-08-02T14:33:03;4.40;;;1.50;;
6566;SDS011;3317;43.994;22.878;2022-08-02T14:35:30;2.57;;;1.53;;
6566;SDS011;3317;43.994;22.878;2022-08-02T14:37:58;3.10;;;1.67;;
6566;SDS011;3317;43.994;22.878;2022-08-02T14:40:27;2.77;;;2.00;;
6566;SDS011;3317;43.994;22.878;2022-08-02T14:42:54;2.83;;;1.70;;
6566;SDS011;3317;43.994;22.878;2022-08-02T14:45:21;2.30;;;1.60;;
6566;SDS011;3317;43.994;22.878;2022-08-02T14:47:50;3.27;;;2.33;;
6566;SDS011;3317;43.994;22.878;2022-08-02T14:50:17;4.93;;;2.30;;
6566;SDS011;3317;43.994;22.878;2022-08-02T14:52:46;3.00;;;2.17;;
6566;SDS011;3317;43.994;22.878;2022-08-02T14:55:15;2.13;;;1.60;;
6566;SDS011;3317;43.994;22.878;2022-08-02T14:57:42;1.83;;;1.73;;
6566;SDS011;3317;43.994;22.878;2022-08-02T15:00:10;1.60;;;1.50;;
6566;SDS011;3317;43.994;22.878;2022-08-02T15:02:37;4.90;;;1.97;;
6566;SDS011;3317;43.994;22.878;2022-08-02T15:05:05;1.90;;;1.70;;
6566;SDS011;3317;43.994;22.878;2022-08-02T15:07:32;1.43;;;1.33;;
6566;SDS011;3317;43.994;22.878;2022-08-02T15:09:59;1.83;;;1.57;;
6566;SDS011;3317;43.994;22.878;2022-08-02T15:12:27;1.87;;;1.60;;
6566;SDS011;3317;43.994;22.878;2022-08-02T15:14:54;1.93;;;1.50;;
6566;SDS011;3317;43.994;22.878;2022-08-02T15:17:21;1.50;;;1.40;;
6566;SDS011;3317;43.994;22.878;2022-08-02T15:19:48;1.50;;;1.40;;
6566;SDS011;3317;43.994;22.878;2022-08-02T15:22:15;1.83;;;1.60;;